sim
Sign-in with your pilot id or email,
or register
Callsign
Passwort

Schedule Details

Flight Number: DLH575
Departure: Cape Town International Airport (FACT) at 07:40
Arrival: Munich Airport (EDDM) at 19:10
Route: Lufthansa Passenger Schedule. Enter filed route here before submitting Pirep.

Weather Information
Getting current METAR information for FACT 240100Z 19005KT 1500 R19/P1500 BR SCT003 13/12 Q1014 BECMG 0500 FG BKN002
Getting current METAR information for EDDM 240050Z VRB02KT CAVOK 12/11 Q1009 NOSIG

Schedule Frequency

Route Map